sensor_id;sensor_type;location;lat;lon;timestamp;temperature;humidity
24902;DHT22;31328;51.402;0.016;2023-11-21T00:02:11;12.00;99.90
24902;DHT22;31328;51.402;0.016;2023-11-21T00:04:37;12.00;99.90
24902;DHT22;31328;51.402;0.016;2023-11-21T00:07:04;12.00;99.90
24902;DHT22;31328;51.402;0.016;2023-11-21T00:09:32;12.00;99.90
24902;DHT22;31328;51.402;0.016;2023-11-21T00:11:59;12.00;99.90
24902;DHT22;31328;51.402;0.016;2023-11-21T00:14:28;12.00;99.90
24902;DHT22;31328;51.402;0.016;2023-11-21T00:16:54;12.00;99.90
24902;DHT22;31328;51.402;0.016;2023-11-21T00:19:20;12.00;99.90
24902;DHT22;31328;51.402;0.016;2023-11-21T00:21:47;12.00;99.90
24902;DHT22;31328;51.402;0.016;2023-11-21T00:24:13;12.00;99.90
24902;DHT22;31328;51.402;0.016;2023-11-21T00:26:40;12.00;99.90
24902;DHT22;31328;51.402;0.016;2023-11-21T00:29:07;12.00;99.90
24902;DHT22;31328;51.402;0.016;2023-11-21T00:31:37;12.00;99.90
24902;DHT22;31328;51.402;0.016;2023-11-21T00:34:03;12.00;99.90
24902;DHT22;31328;51.402;0.016;2023-11-21T00:36:31;12.00;99.90
24902;DHT22;31328;51.402;0.016;2023-11-21T00:38:58;12.00;99.90
24902;DHT22;31328;51.402;0.016;2023-11-21T00:41:25;12.00;99.90
24902;DHT22;31328;51.402;0.016;2023-11-21T00:43:55;12.00;99.90
24902;DHT22;31328;51.402;0.016;2023-11-21T00:46:21;12.00;99.90
24902;DHT22;31328;51.402;0.016;2023-11-21T00:48:50;12.00;99.90
24902;DHT22;31328;51.402;0.016;2023-11-21T00:51:16;12.00;99.90
24902;DHT22;31328;51.402;0.016;2023-11-21T00:53:43;12.00;99.90
24902;DHT22;31328;51.402;0.016;2023-11-21T00:56:10;12.00;99.90
24902;DHT22;31328;51.402;0.016;2023-11-21T00:58:36;12.00;99.90
24902;DHT22;31328;51.402;0.016;2023-11-21T01:01:03;12.00;99.90
24902;DHT22;31328;51.402;0.016;2023-11-21T01:03:29;12.00;99.90
24902;DHT22;31328;51.402;0.016;2023-11-21T01:05:57;12.00;99.90
24902;DHT22;31328;51.402;0.016;2023-11-21T01:08:23;12.00;99.90
24902;DHT22;31328;51.402;0.016;2023-11-21T01:10:50;12.00;99.90
24902;DHT22;31328;51.402;0.016;2023-11-21T01:13:16;12.00;99.90
24902;DHT22;31328;51.402;0.016;2023-11-21T01:15:43;11.90;99.90
24902;DHT22;31328;51.402;0.016;2023-11-21T01:18:09;12.00;99.90
24902;DHT22;31328;51.402;0.016;2023-11-21T01:20:35;12.00;99.90
24902;DHT22;31328;51.402;0.016;2023-11-21T01:23:02;12.00;99.90
24902;DHT22;31328;51.402;0.016;2023-11-21T01:25:28;12.00;99.90
24902;DHT22;31328;51.402;0.016;2023-11-21T01:27:56;12.00;99.90
24902;DHT22;31328;51.402;0.016;2023-11-21T01:30:22;12.00;99.90
24902;DHT22;31328;51.402;0.016;2023-11-21T01:32:48;12.00;99.90
24902;DHT22;31328;51.402;0.016;2023-11-21T01:35:15;12.00;99.90
24902;DHT22;31328;51.402;0.016;2023-11-21T01:37:41;12.00;99.90
24902;DHT22;31328;51.402;0.016;2023-11-21T01:40:08;12.00;99.90
24902;DHT22;31328;51.402;0.016;2023-11-21T01:42:37;12.00;99.90
24902;DHT22;31328;51.402;0.016;2023-11-21T01:45:03;12.00;99.90
24902;DHT22;31328;51.402;0.016;2023-11-21T01:47:32;12.00;99.90
24902;DHT22;31328;51.402;0.016;2023-11-21T01:49:59;11.90;99.90
24902;DHT22;31328;51.402;0.016;2023-11-21T01:52:27;11.90;99.90
24902;DHT22;31328;51.402;0.016;2023-11-21T01:54:56;11.90;99.90
24902;DHT22;31328;51.402;0.016;2023-11-21T01:57:22;12.00;99.90
24902;DHT22;31328;51.402;0.016;2023-11-21T01:59:49;11.90;99.90
24902;DHT22;31328;51.402;0.016;2023-11-21T02:02:16;12.00;99.90
24902;DHT22;31328;51.402;0.016;2023-11-21T02:04:43;11.90;99.90
24902;DHT22;31328;51.402;0.016;2023-11-21T02:07:09;12.00;99.90
24902;DHT22;31328;51.402;0.016;2023-11-21T02:09:36;11.90;99.90
24902;DHT22;31328;51.402;0.016;2023-11-21T02:12:04;11.90;99.90
24902;DHT22;31328;51.402;0.016;2023-11-21T02:14:31;11.90;99.90
24902;DHT22;31328;51.402;0.016;2023-11-21T02:16:58;11.90;99.90
24902;DHT22;31328;51.402;0.016;2023-11-21T02:19:24;11.90;99.90
24902;DHT22;31328;51.402;0.016;2023-11-21T02:21:59;11.90;99.90
24902;DHT22;31328;51.402;0.016;2023-11-21T02:24:29;11.90;99.90
24902;DHT22;31328;51.402;0.016;2023-11-21T02:26:56;11.90;99.90
24902;DHT22;31328;51.402;0.016;2023-11-21T02:29:23;12.00;99.90
24902;DHT22;31328;51.402;0.016;2023-11-21T02:31:54;11.90;99.90
24902;DHT22;31328;51.402;0.016;2023-11-21T02:34:22;11.90;99.90
24902;DHT22;31328;51.402;0.016;2023-11-21T02:36:49;12.00;99.90
24902;DHT22;31328;51.402;0.016;2023-11-21T02:39:18;12.00;99.90
24902;DHT22;31328;51.402;0.016;2023-11-21T02:41:48;12.00;99.90
24902;DHT22;31328;51.402;0.016;2023-11-21T02:44:15;12.00;99.90
24902;DHT22;31328;51.402;0.016;2023-11-21T02:46:41;12.00;99.90
24902;DHT22;31328;51.402;0.016;2023-11-21T02:49:07;12.00;99.90
24902;DHT22;31328;51.402;0.016;2023-11-21T02:51:36;12.00;99.90
24902;DHT22;31328;51.402;0.016;2023-11-21T02:54:05;12.00;99.90
24902;DHT22;31328;51.402;0.016;2023-11-21T02:56:34;12.00;99.90
24902;DHT22;31328;51.402;0.016;2023-11-21T02:59:00;12.00;99.90
24902;DHT22;31328;51.402;0.016;2023-11-21T03:01:27;12.10;99.90
24902;DHT22;31328;51.402;0.016;2023-11-21T03:03:54;12.10;99.90
24902;DHT22;31328;51.402;0.016;2023-11-21T03:06:22;12.00;99.90
24902;DHT22;31328;51.402;0.016;2023-11-21T03:08:49;12.00;99.90
24902;DHT22;31328;51.402;0.016;2023-11-21T03:11:15;12.00;99.90
24902;DHT22;31328;51.402;0.016;2023-11-21T03:13:42;12.00;99.90
24902;DHT22;31328;51.402;0.016;2023-11-21T03:16:09;12.00;99.90
24902;DHT22;31328;51.402;0.016;2023-11-21T03:18:37;12.00;99.90
24902;DHT22;31328;51.402;0.016;2023-11-21T03:21:04;12.00;99.90
24902;DHT22;31328;51.402;0.016;2023-11-21T03:23:31;12.00;99.90
24902;DHT22;31328;51.402;0.016;2023-11-21T03:25:58;12.00;99.90
24902;DHT22;31328;51.402;0.016;2023-11-21T03:28:26;12.00;99.90
24902;DHT22;31328;51.402;0.016;2023-11-21T03:30:53;12.00;99.90
24902;DHT22;31328;51.402;0.016;2023-11-21T03:33:20;11.90;99.90
24902;DHT22;31328;51.402;0.016;2023-11-21T03:35:46;11.90;99.90
24902;DHT22;31328;51.402;0.016;2023-11-21T03:38:13;11.90;99.90
24902;DHT22;31328;51.402;0.016;2023-11-21T03:40:39;11.90;99.90
24902;DHT22;31328;51.402;0.016;2023-11-21T03:43:06;11.90;99.90
24902;DHT22;31328;51.402;0.016;2023-11-21T03:45:32;11.90;99.90
24902;DHT22;31328;51.402;0.016;2023-11-21T03:47:59;11.90;99.90
24902;DHT22;31328;51.402;0.016;2023-11-21T03:50:29;11.80;99.90
24902;DHT22;31328;51.402;0.016;2023-11-21T03:52:55;11.80;99.90
24902;DHT22;31328;51.402;0.016;2023-11-21T03:55:22;11.80;99.90
24902;DHT22;31328;51.402;0.016;2023-11-21T03:57:50;11.80;99.90
24902;DHT22;31328;51.402;0.016;2023-11-21T04:00:19;11.70;99.90
24902;DHT22;31328;51.402;0.016;2023-11-21T04:02:48;11.70;99.90
24902;DHT22;31328;51.402;0.016;2023-11-21T04:05:14;11.70;99.90
24902;DHT22;31328;51.402;0.016;2023-11-21T04:07:40;11.70;99.90
24902;DHT22;31328;51.402;0.016;2023-11-21T04:10:08;11.70;99.90
24902;DHT22;31328;51.402;0.016;2023-11-21T04:12:35;11.70;99.90
24902;DHT22;31328;51.402;0.016;2023-11-21T04:15:03;11.70;99.90
24902;DHT22;31328;51.402;0.016;2023-11-21T04:17:30;11.70;99.90
24902;DHT22;31328;51.402;0.016;2023-11-21T04:19:56;11.70;99.90
24902;DHT22;31328;51.402;0.016;2023-11-21T04:22:23;11.70;99.90
24902;DHT22;31328;51.402;0.016;2023-11-21T04:24:49;11.70;99.90
24902;DHT22;31328;51.402;0.016;2023-11-21T04:27:16;11.70;99.90
24902;DHT22;31328;51.402;0.016;2023-11-21T04:29:44;11.70;99.90
24902;DHT22;31328;51.402;0.016;2023-11-21T04:32:10;11.70;99.90
24902;DHT22;31328;51.402;0.016;2023-11-21T04:34:38;11.60;99.90
24902;DHT22;31328;51.402;0.016;2023-11-21T04:37:04;11.60;99.90
24902;DHT22;31328;51.402;0.016;2023-11-21T04:39:32;11.60;99.90
24902;DHT22;31328;51.402;0.016;2023-11-21T04:41:58;11.70;99.90
24902;DHT22;31328;51.402;0.016;2023-11-21T04:44:25;11.60;99.90
24902;DHT22;31328;51.402;0.016;2023-11-21T04:46:51;11.60;99.90
24902;DHT22;31328;51.402;0.016;2023-11-21T04:49:18;11.60;99.90
24902;DHT22;31328;51.402;0.016;2023-11-21T04:51:44;11.60;99.90
24902;DHT22;31328;51.402;0.016;2023-11-21T04:54:11;11.60;99.90
24902;DHT22;31328;51.402;0.016;2023-11-21T04:56:37;11.60;99.90
24902;DHT22;31328;51.402;0.016;2023-11-21T04:59:03;11.60;99.90
24902;DHT22;31328;51.402;0.016;2023-11-21T05:01:30;11.60;99.90
24902;DHT22;31328;51.402;0.016;2023-11-21T05:03:57;11.60;99.90
24902;DHT22;31328;51.402;0.016;2023-11-21T05:06:23;11.60;99.90
24902;DHT22;31328;51.402;0.016;2023-11-21T05:08:50;11.60;99.90
24902;DHT22;31328;51.402;0.016;2023-11-21T05:11:28;11.60;99.90
24902;DHT22;31328;51.402;0.016;2023-11-21T05:13:58;11.60;99.90
24902;DHT22;31328;51.402;0.016;2023-11-21T05:16:27;11.60;99.90
24902;DHT22;31328;51.402;0.016;2023-11-21T05:18:53;11.50;99.90
24902;DHT22;31328;51.402;0.016;2023-11-21T05:21:22;11.50;99.90
24902;DHT22;31328;51.402;0.016;2023-11-21T05:23:49;11.40;99.90
24902;DHT22;31328;51.402;0.016;2023-11-21T05:26:15;11.40;99.90
24902;DHT22;31328;51.402;0.016;2023-11-21T05:28:42;11.30;99.90
24902;DHT22;31328;51.402;0.016;2023-11-21T05:31:08;11.30;99.90
24902;DHT22;31328;51.402;0.016;2023-11-21T05:33:34;11.30;99.90
24902;DHT22;31328;51.402;0.016;2023-11-21T05:36:01;11.30;99.90
24902;DHT22;31328;51.402;0.016;2023-11-21T05:38:27;11.30;99.90
24902;DHT22;31328;51.402;0.016;2023-11-21T05:40:53;11.30;99.90
24902;DHT22;31328;51.402;0.016;2023-11-21T05:43:20;11.30;99.90
24902;DHT22;31328;51.402;0.016;2023-11-21T05:45:46;11.30;99.90
24902;DHT22;31328;51.402;0.016;2023-11-21T05:48:13;11.20;99.90
24902;DHT22;31328;51.402;0.016;2023-11-21T05:50:39;11.20;99.90
24902;DHT22;31328;51.402;0.016;2023-11-21T05:53:05;11.20;99.90
24902;DHT22;31328;51.402;0.016;2023-11-21T05:55:32;11.20;99.90
24902;DHT22;31328;51.402;0.016;2023-11-21T05:57:58;11.20;99.90
24902;DHT22;31328;51.402;0.016;2023-11-21T06:00:25;11.20;99.90
24902;DHT22;31328;51.402;0.016;2023-11-21T06:02:54;11.20;99.90
24902;DHT22;31328;51.402;0.016;2023-11-21T06:05:24;11.20;99.90
24902;DHT22;31328;51.402;0.016;2023-11-21T06:07:52;11.10;99.90
24902;DHT22;31328;51.402;0.016;2023-11-21T06:10:21;11.10;99.90
24902;DHT22;31328;51.402;0.016;2023-11-21T06:12:47;11.10;99.90
24902;DHT22;31328;51.402;0.016;2023-11-21T06:15:14;11.00;99.90
24902;DHT22;31328;51.402;0.016;2023-11-21T06:17:41;11.10;99.90
24902;DHT22;31328;51.402;0.016;2023-11-21T06:20:11;11.00;99.90
24902;DHT22;31328;51.402;0.016;2023-11-21T06:22:42;11.00;99.90
24902;DHT22;31328;51.402;0.016;2023-11-21T06:25:09;11.00;99.90
24902;DHT22;31328;51.402;0.016;2023-11-21T06:27:47;10.90;99.90
24902;DHT22;31328;51.402;0.016;2023-11-21T06:30:14;10.90;99.90
24902;DHT22;31328;51.402;0.016;2023-11-21T06:32:42;11.00;99.90
24902;DHT22;31328;51.402;0.016;2023-11-21T06:35:11;10.90;99.90
24902;DHT22;31328;51.402;0.016;2023-11-21T06:37:39;10.90;99.90
24902;DHT22;31328;51.402;0.016;2023-11-21T06:40:06;11.00;99.90
24902;DHT22;31328;51.402;0.016;2023-11-21T06:42:32;11.00;99.90
24902;DHT22;31328;51.402;0.016;2023-11-21T06:45:00;11.00;99.90
24902;DHT22;31328;51.402;0.016;2023-11-21T06:47:31;11.00;99.90
24902;DHT22;31328;51.402;0.016;2023-11-21T06:49:58;11.00;99.90
24902;DHT22;31328;51.402;0.016;2023-11-21T06:52:26;11.10;99.90
24902;DHT22;31328;51.402;0.016;2023-11-21T06:54:52;11.00;99.90
24902;DHT22;31328;51.402;0.016;2023-11-21T06:57:18;11.10;99.90
24902;DHT22;31328;51.402;0.016;2023-11-21T06:59:45;11.00;99.90
24902;DHT22;31328;51.402;0.016;2023-11-21T07:02:11;11.00;99.90
24902;DHT22;31328;51.402;0.016;2023-11-21T07:04:37;11.00;99.90
24902;DHT22;31328;51.402;0.016;2023-11-21T07:07:04;11.00;99.90
24902;DHT22;31328;51.402;0.016;2023-11-21T07:09:33;11.00;99.90
24902;DHT22;31328;51.402;0.016;2023-11-21T07:11:59;11.00;99.90
24902;DHT22;31328;51.402;0.016;2023-11-21T07:14:25;10.90;99.90
24902;DHT22;31328;51.402;0.016;2023-11-21T07:16:52;10.90;99.90
24902;DHT22;31328;51.402;0.016;2023-11-21T07:19:18;10.90;99.90
24902;DHT22;31328;51.402;0.016;2023-11-21T07:21:45;10.90;99.90
24902;DHT22;31328;51.402;0.016;2023-11-21T07:24:12;10.90;99.90
24902;DHT22;31328;51.402;0.016;2023-11-21T07:26:38;10.90;99.90
24902;DHT22;31328;51.402;0.016;2023-11-21T07:29:05;10.80;99.90
24902;DHT22;31328;51.402;0.016;2023-11-21T07:31:32;10.80;99.90
24902;DHT22;31328;51.402;0.016;2023-11-21T07:34:01;10.80;99.90
24902;DHT22;31328;51.402;0.016;2023-11-21T07:36:28;10.80;99.90
24902;DHT22;31328;51.402;0.016;2023-11-21T07:38:54;10.80;99.90
24902;DHT22;31328;51.402;0.016;2023-11-21T07:41:20;10.80;99.90
24902;DHT22;31328;51.402;0.016;2023-11-21T07:43:48;10.70;99.90
24902;DHT22;31328;51.402;0.016;2023-11-21T07:46:14;10.70;99.90
24902;DHT22;31328;51.402;0.016;2023-11-21T07:48:42;10.70;99.90
24902;DHT22;31328;51.402;0.016;2023-11-21T07:51:09;10.70;99.90
24902;DHT22;31328;51.402;0.016;2023-11-21T07:53:36;10.70;99.90
24902;DHT22;31328;51.402;0.016;2023-11-21T07:56:04;10.70;99.90
24902;DHT22;31328;51.402;0.016;2023-11-21T07:58:30;10.70;99.90
24902;DHT22;31328;51.402;0.016;2023-11-21T08:00:57;10.70;99.90
24902;DHT22;31328;51.402;0.016;2023-11-21T08:03:23;10.70;99.90
24902;DHT22;31328;51.402;0.016;2023-11-21T08:05:49;10.70;99.90
24902;DHT22;31328;51.402;0.016;2023-11-21T08:08:16;10.60;99.90
24902;DHT22;31328;51.402;0.016;2023-11-21T08:10:45;10.70;99.90
24902;DHT22;31328;51.402;0.016;2023-11-21T08:13:14;10.60;99.90
24902;DHT22;31328;51.402;0.016;2023-11-21T08:15:43;10.60;99.90
24902;DHT22;31328;51.402;0.016;2023-11-21T08:18:12;10.70;99.90
24902;DHT22;31328;51.402;0.016;2023-11-21T08:20:40;10.70;99.90
24902;DHT22;31328;51.402;0.016;2023-11-21T08:23:07;10.70;99.90
24902;DHT22;31328;51.402;0.016;2023-11-21T08:25:33;10.70;99.90
24902;DHT22;31328;51.402;0.016;2023-11-21T08:28:01;10.70;99.90
24902;DHT22;31328;51.402;0.016;2023-11-21T08:30:27;10.70;99.90
24902;DHT22;31328;51.402;0.016;2023-11-21T08:32:56;10.70;99.90
24902;DHT22;31328;51.402;0.016;2023-11-21T08:35:24;10.70;99.90
24902;DHT22;31328;51.402;0.016;2023-11-21T08:37:51;10.70;99.90
24902;DHT22;31328;51.402;0.016;2023-11-21T08:40:19;10.80;99.90
24902;DHT22;31328;51.402;0.016;2023-11-21T08:42:47;10.80;99.90
24902;DHT22;31328;51.402;0.016;2023-11-21T08:45:17;10.80;99.90
24902;DHT22;31328;51.402;0.016;2023-11-21T08:47:44;10.80;99.90
24902;DHT22;31328;51.402;0.016;2023-11-21T08:50:11;10.90;99.90
24902;DHT22;31328;51.402;0.016;2023-11-21T08:52:38;10.80;99.90
24902;DHT22;31328;51.402;0.016;2023-11-21T08:55:05;10.90;99.90
24902;DHT22;31328;51.402;0.016;2023-11-21T08:57:39;10.80;99.90
24902;DHT22;31328;51.402;0.016;2023-11-21T09:00:07;10.90;99.90
24902;DHT22;31328;51.402;0.016;2023-11-21T09:02:38;10.90;99.90
24902;DHT22;31328;51.402;0.016;2023-11-21T09:05:05;10.90;99.90
24902;DHT22;31328;51.402;0.016;2023-11-21T09:07:32;10.90;99.90
24902;DHT22;31328;51.402;0.016;2023-11-21T09:09:58;10.90;99.90
24902;DHT22;31328;51.402;0.016;2023-11-21T09:12:24;10.90;99.90
24902;DHT22;31328;51.402;0.016;2023-11-21T09:14:51;10.90;99.90
24902;DHT22;31328;51.402;0.016;2023-11-21T09:17:17;10.90;99.90
24902;DHT22;31328;51.402;0.016;2023-11-21T09:19:43;10.90;99.90
24902;DHT22;31328;51.402;0.016;2023-11-21T09:22:13;10.80;99.90
24902;DHT22;31328;51.402;0.016;2023-11-21T09:24:39;10.90;99.90
24902;DHT22;31328;51.402;0.016;2023-11-21T09:27:05;10.80;99.90
24902;DHT22;31328;51.402;0.016;2023-11-21T09:29:36;10.90;99.90
24902;DHT22;31328;51.402;0.016;2023-11-21T09:32:17;10.90;99.90
24902;DHT22;31328;51.402;0.016;2023-11-21T09:34:51;10.90;99.90
24902;DHT22;31328;51.402;0.016;2023-11-21T09:37:17;10.90;99.90
24902;DHT22;31328;51.402;0.016;2023-11-21T09:39:45;10.90;99.90
24902;DHT22;31328;51.402;0.016;2023-11-21T09:42:19;11.00;99.90
24902;DHT22;31328;51.402;0.016;2023-11-21T09:45:27;11.00;99.90
24902;DHT22;31328;51.402;0.016;2023-11-21T09:47:55;11.00;99.90
24902;DHT22;31328;51.402;0.016;2023-11-21T09:50:23;11.00;99.90
24902;DHT22;31328;51.402;0.016;2023-11-21T09:55:18;11.10;99.90
24902;DHT22;31328;51.402;0.016;2023-11-21T09:57:47;11.10;99.90
24902;DHT22;31328;51.402;0.016;2023-11-21T10:00:15;11.10;99.90
24902;DHT22;31328;51.402;0.016;2023-11-21T10:02:44;11.10;99.90
24902;DHT22;31328;51.402;0.016;2023-11-21T10:05:10;11.10;99.90
24902;DHT22;31328;51.402;0.016;2023-11-21T10:07:39;11.10;99.90
24902;DHT22;31328;51.402;0.016;2023-11-21T10:10:08;11.20;99.90
24902;DHT22;31328;51.402;0.016;2023-11-21T10:12:35;11.20;99.90
24902;DHT22;31328;51.402;0.016;2023-11-21T10:15:03;11.20;99.90
24902;DHT22;31328;51.402;0.016;2023-11-21T10:17:33;11.20;99.90
24902;DHT22;31328;51.402;0.016;2023-11-21T10:20:07;11.30;99.90
24902;DHT22;31328;51.402;0.016;2023-11-21T10:22:40;11.30;99.90
24902;DHT22;31328;51.402;0.016;2023-11-21T10:25:10;11.30;99.90
24902;DHT22;31328;51.402;0.016;2023-11-21T10:27:37;11.40;99.90
24902;DHT22;31328;51.402;0.016;2023-11-21T10:30:07;11.40;99.90
24902;DHT22;31328;51.402;0.016;2023-11-21T10:32:38;11.50;99.90
24902;DHT22;31328;51.402;0.016;2023-11-21T10:35:10;11.60;99.90
24902;DHT22;31328;51.402;0.016;2023-11-21T10:37:37;11.60;99.90
24902;DHT22;31328;51.402;0.016;2023-11-21T10:40:10;11.70;99.90
24902;DHT22;31328;51.402;0.016;2023-11-21T10:42:40;11.70;99.90
24902;DHT22;31328;51.402;0.016;2023-11-21T10:45:07;11.70;99.90
24902;DHT22;31328;51.402;0.016;2023-11-21T10:47:41;11.70;99.90
24902;DHT22;31328;51.402;0.016;2023-11-21T10:50:07;11.80;99.90
24902;DHT22;31328;51.402;0.016;2023-11-21T10:52:39;11.80;99.90
24902;DHT22;31328;51.402;0.016;2023-11-21T10:55:20;11.80;99.90
24902;DHT22;31328;51.402;0.016;2023-11-21T10:57:49;11.80;99.90
24902;DHT22;31328;51.402;0.016;2023-11-21T11:00:17;11.80;99.90
24902;DHT22;31328;51.402;0.016;2023-11-21T11:02:50;11.90;99.90
24902;DHT22;31328;51.402;0.016;2023-11-21T11:05:19;11.90;99.90
24902;DHT22;31328;51.402;0.016;2023-11-21T11:08:07;11.90;99.90
24902;DHT22;31328;51.402;0.016;2023-11-21T11:10:34;11.90;99.90
24902;DHT22;31328;51.402;0.016;2023-11-21T11:13:01;11.90;99.90
24902;DHT22;31328;51.402;0.016;2023-11-21T11:15:28;11.90;99.90
24902;DHT22;31328;51.402;0.016;2023-11-21T11:17:55;12.00;99.90
24902;DHT22;31328;51.402;0.016;2023-11-21T11:20:33;11.90;99.90
24902;DHT22;31328;51.402;0.016;2023-11-21T11:23:39;11.90;99.90
24902;DHT22;31328;51.402;0.016;2023-11-21T11:26:31;12.00;99.90
24902;DHT22;31328;51.402;0.016;2023-11-21T11:29:35;12.00;99.90
24902;DHT22;31328;51.402;0.016;2023-11-21T11:35:20;12.00;99.90
24902;DHT22;31328;51.402;0.016;2023-11-21T11:37:48;12.00;99.90
24902;DHT22;31328;51.402;0.016;2023-11-21T11:40:15;12.00;99.90
24902;DHT22;31328;51.402;0.016;2023-11-21T11:42:58;12.00;99.90
24902;DHT22;31328;51.402;0.016;2023-11-21T11:45:37;12.00;99.90
24902;DHT22;31328;51.402;0.016;2023-11-21T11:48:10;12.10;99.90
24902;DHT22;31328;51.402;0.016;2023-11-21T11:51:03;12.00;99.90
24902;DHT22;31328;51.402;0.016;2023-11-21T11:53:42;12.10;99.90
24902;DHT22;31328;51.402;0.016;2023-11-21T11:56:30;12.10;99.90
24902;DHT22;31328;51.402;0.016;2023-11-21T11:59:00;12.00;99.90
24902;DHT22;31328;51.402;0.016;2023-11-21T12:01:29;12.10;99.90
24902;DHT22;31328;51.402;0.016;2023-11-21T12:04:24;12.10;99.90
24902;DHT22;31328;51.402;0.016;2023-11-21T12:07:02;12.20;99.90
24902;DHT22;31328;51.402;0.016;2023-11-21T12:09:30;12.10;99.90
24902;DHT22;31328;51.402;0.016;2023-11-21T12:11:57;12.20;99.90
24902;DHT22;31328;51.402;0.016;2023-11-21T12:14:24;12.20;99.90
24902;DHT22;31328;51.402;0.016;2023-11-21T12:16:51;12.20;99.90
24902;DHT22;31328;51.402;0.016;2023-11-21T12:19:18;12.30;99.90
24902;DHT22;31328;51.402;0.016;2023-11-21T12:21:44;12.30;99.90
24902;DHT22;31328;51.402;0.016;2023-11-21T12:24:11;12.30;99.90
24902;DHT22;31328;51.402;0.016;2023-11-21T12:26:40;12.30;99.90
24902;DHT22;31328;51.402;0.016;2023-11-21T12:29:06;12.30;99.90
24902;DHT22;31328;51.402;0.016;2023-11-21T12:31:34;12.30;99.90
24902;DHT22;31328;51.402;0.016;2023-11-21T12:34:01;12.40;99.90
24902;DHT22;31328;51.402;0.016;2023-11-21T12:36:27;12.40;99.90
24902;DHT22;31328;51.402;0.016;2023-11-21T12:38:56;12.40;99.90
24902;DHT22;31328;51.402;0.016;2023-11-21T12:41:22;12.40;99.90
24902;DHT22;31328;51.402;0.016;2023-11-21T12:43:49;12.40;99.90
24902;DHT22;31328;51.402;0.016;2023-11-21T12:46:16;12.40;99.90
24902;DHT22;31328;51.402;0.016;2023-11-21T12:48:44;12.40;99.90
24902;DHT22;31328;51.402;0.016;2023-11-21T12:51:12;12.30;99.90
24902;DHT22;31328;51.402;0.016;2023-11-21T12:53:41;12.30;99.90
24902;DHT22;31328;51.402;0.016;2023-11-21T12:56:13;12.30;99.90
24902;DHT22;31328;51.402;0.016;2023-11-21T12:58:40;12.30;99.90
24902;DHT22;31328;51.402;0.016;2023-11-21T13:01:13;12.30;99.90
24902;DHT22;31328;51.402;0.016;2023-11-21T13:03:46;12.30;99.90
24902;DHT22;31328;51.402;0.016;2023-11-21T13:06:15;12.30;99.90
24902;DHT22;31328;51.402;0.016;2023-11-21T13:08:44;12.30;99.90
24902;DHT22;31328;51.402;0.016;2023-11-21T13:11:11;12.30;99.90
24902;DHT22;31328;51.402;0.016;2023-11-21T13:13:41;12.30;99.90
24902;DHT22;31328;51.402;0.016;2023-11-21T13:16:08;12.40;99.90
24902;DHT22;31328;51.402;0.016;2023-11-21T13:18:36;12.30;99.90
24902;DHT22;31328;51.402;0.016;2023-11-21T13:21:04;12.40;99.90
24902;DHT22;31328;51.402;0.016;2023-11-21T13:23:40;12.40;99.90
24902;DHT22;31328;51.402;0.016;2023-11-21T13:26:08;12.40;99.90
24902;DHT22;31328;51.402;0.016;2023-11-21T13:28:35;12.40;99.90
24902;DHT22;31328;51.402;0.016;2023-11-21T13:31:04;12.40;99.90
24902;DHT22;31328;51.402;0.016;2023-11-21T13:33:50;12.40;99.90
24902;DHT22;31328;51.402;0.016;2023-11-21T13:36:25;12.40;99.90
24902;DHT22;31328;51.402;0.016;2023-11-21T13:38:51;12.30;99.90
24902;DHT22;31328;51.402;0.016;2023-11-21T13:41:21;12.30;99.90
24902;DHT22;31328;51.402;0.016;2023-11-21T13:43:54;12.30;99.90
24902;DHT22;31328;51.402;0.016;2023-11-21T13:46:29;12.30;99.90
24902;DHT22;31328;51.402;0.016;2023-11-21T13:49:03;12.30;99.90
24902;DHT22;31328;51.402;0.016;2023-11-21T13:51:29;12.30;99.90
24902;DHT22;31328;51.402;0.016;2023-11-21T13:54:03;12.30;99.90
24902;DHT22;31328;51.402;0.016;2023-11-21T13:56:36;12.30;99.90
24902;DHT22;31328;51.402;0.016;2023-11-21T13:59:03;12.20;99.90
24902;DHT22;31328;51.402;0.016;2023-11-21T14:01:45;12.20;99.90
24902;DHT22;31328;51.402;0.016;2023-11-21T14:04:22;12.20;99.90
24902;DHT22;31328;51.402;0.016;2023-11-21T14:07:08;12.20;99.90
24902;DHT22;31328;51.402;0.016;2023-11-21T14:09:51;12.20;99.90
24902;DHT22;31328;51.402;0.016;2023-11-21T14:12:18;12.20;99.90
24902;DHT22;31328;51.402;0.016;2023-11-21T14:14:45;12.20;99.90
24902;DHT22;31328;51.402;0.016;2023-11-21T14:17:13;12.10;99.90
24902;DHT22;31328;51.402;0.016;2023-11-21T14:19:39;12.10;99.90
24902;DHT22;31328;51.402;0.016;2023-11-21T14:22:10;12.00;99.90
24902;DHT22;31328;51.402;0.016;2023-11-21T14:24:36;11.90;99.90
24902;DHT22;31328;51.402;0.016;2023-11-21T14:27:03;11.90;99.90
24902;DHT22;31328;51.402;0.016;2023-11-21T14:29:30;11.80;99.90
24902;DHT22;31328;51.402;0.016;2023-11-21T14:31:57;11.80;99.90
24902;DHT22;31328;51.402;0.016;2023-11-21T14:34:24;11.80;99.90
24902;DHT22;31328;51.402;0.016;2023-11-21T14:36:50;11.80;99.90
24902;DHT22;31328;51.402;0.016;2023-11-21T14:39:17;11.80;99.90
24902;DHT22;31328;51.402;0.016;2023-11-21T14:41:50;11.80;99.90
24902;DHT22;31328;51.402;0.016;2023-11-21T14:44:16;11.70;99.90
24902;DHT22;31328;51.402;0.016;2023-11-21T14:46:43;11.70;99.90
24902;DHT22;31328;51.402;0.016;2023-11-21T14:49:15;11.70;99.90
24902;DHT22;31328;51.402;0.016;2023-11-21T14:51:52;11.70;99.90
24902;DHT22;31328;51.402;0.016;2023-11-21T14:54:34;11.70;99.90
24902;DHT22;31328;51.402;0.016;2023-11-21T14:57:10;11.70;99.90
24902;DHT22;31328;51.402;0.016;2023-11-21T14:59:46;11.70;99.90
24902;DHT22;31328;51.402;0.016;2023-11-21T15:02:14;11.60;99.90
24902;DHT22;31328;51.402;0.016;2023-11-21T15:04:42;11.60;99.90
24902;DHT22;31328;51.402;0.016;2023-11-21T15:07:09;11.60;99.90
24902;DHT22;31328;51.402;0.016;2023-11-21T15:09:37;11.60;99.90
24902;DHT22;31328;51.402;0.016;2023-11-21T15:12:11;11.50;99.90
24902;DHT22;31328;51.402;0.016;2023-11-21T15:17:07;11.40;99.90
24902;DHT22;31328;51.402;0.016;2023-11-21T15:19:35;11.40;99.90
24902;DHT22;31328;51.402;0.016;2023-11-21T15:22:02;11.30;99.90
24902;DHT22;31328;51.402;0.016;2023-11-21T15:24:28;11.30;99.90
24902;DHT22;31328;51.402;0.016;2023-11-21T15:26:55;11.30;99.90
24902;DHT22;31328;51.402;0.016;2023-11-21T15:29:21;11.30;99.90
24902;DHT22;31328;51.402;0.016;2023-11-21T15:31:48;11.20;99.90
24902;DHT22;31328;51.402;0.016;2023-11-21T15:34:15;11.20;99.90
24902;DHT22;31328;51.402;0.016;2023-11-21T15:36:41;11.20;99.90
24902;DHT22;31328;51.402;0.016;2023-11-21T15:39:08;11.20;99.90
24902;DHT22;31328;51.402;0.016;2023-11-21T15:41:40;11.20;99.90
24902;DHT22;31328;51.402;0.016;2023-11-21T15:44:07;11.20;99.90
24902;DHT22;31328;51.402;0.016;2023-11-21T15:46:37;11.20;99.90
24902;DHT22;31328;51.402;0.016;2023-11-21T15:49:05;11.20;99.90